Create Tblcommutelog Verified Points Advance Search
| # | Trip ID | Id Commuter | Trip Date | Trip Num | Current Lat | Current Lng | Delta Distance | Current Time | Activity | Activity Confidence | Current Speed | |
|---|---|---|---|---|---|---|---|---|---|---|---|---|
| 70661 | 251124_785799_6452825_0707 | 785799 | (not set) | (not set) | 38.97986147033 | -76.933306707937 | 2.5034 | 2025-11-24 07:22:36 | in_vehicle | 100 | 2.1815515838601 | |
| 70662 | 251124_785799_6452825_0707 | 785799 | (not set) | (not set) | 38.97986147033 | -76.933306707937 | 2.5034 | 2025-11-24 07:22:36 | in_vehicle | 100 | 2.1815515838601 | |
| 70663 | 251124_787145_16451911_0645 | 787145 | (not set) | (not set) | 38.892083135365 | -77.046326212657 | 18.2957 | 2025-11-24 07:22:37 | in_vehicle | 100 | 4.5553300490849 | |
| 70664 | 251124_714319_16514952_0654 | 714319 | (not set) | (not set) | 38.892083135356 | -77.046330636894 | 20.2525 | 2025-11-24 07:22:37 | in_vehicle | 100 | 4.5642708342647 | |
| 70665 | 251124_738572_16489587_0654 | 738572 | (not set) | (not set) | 38.922838238242 | -76.904933999984 | 21.239 | 2025-11-24 07:22:39 | in_vehicle | 100 | 3.3259720868687 | |
| 70666 | 251124_787888_16515275_0718 | 787888 | (not set) | (not set) | 38.952391349915 | -77.007084347429 | 0.1824 | 2025-11-24 07:22:39 | on_foot | 100 | 0.66161810330183 | |
| 70667 | 251124_787888_16515275_0718 | 787888 | (not set) | (not set) | 38.952391349915 | -77.007084347429 | 0.1824 | 2025-11-24 07:22:39 | on_foot | 100 | 0.66161810330183 | |
| 70668 | 251124_785264_6438355_0703 | 785264 | (not set) | (not set) | 38.953106591268 | -77.36416806365 | 5.0121 | 2025-11-24 07:22:39 | in_vehicle | 100 | 7.3269734548088 | |
| 70669 | 251124_785674_6441454_0655 | 785674 | (not set) | (not set) | 39.191031833333 | -77.259418666667 | 14.9723 | 2025-11-24 07:22:40 | in_vehicle | 100 | 2.8074065464429 | |
| 70670 | 251124_789883_16514514_0635 | 789883 | (not set) | (not set) | 39.066553178749 | -76.879577532887 | 17.0222 | 2025-11-24 07:22:41 | in_vehicle | 100 | 8.1897592246551 | |
| 70671 | 251124_788537_16416993_0655 | 788537 | (not set) | (not set) | 39.239225612611 | -76.691385897465 | 13.2318 | 2025-11-24 07:22:41 | in_vehicle | 100 | 16.240936279024 | |
| 70672 | 251124_786079_16514446_0715 | 786079 | (not set) | (not set) | 39.336560764726 | -76.574076296497 | 2.3572 | 2025-11-24 07:22:42 | unknown | 100 | 0 | |
| 70673 | 251124_786079_16514446_0715 | 786079 | (not set) | (not set) | 39.336560764726 | -76.574076296497 | 2.3572 | 2025-11-24 07:22:42 | unknown | 100 | 0 | |
| 70674 | 251124_784252_16652453_0706 | 784252 | (not set) | (not set) | 39.383957494992 | -77.28790264389 | 12.2357 | 2025-11-24 07:22:43 | in_vehicle | 100 | 15.941419975502 | |
| 70675 | 251124_774579_16652636_0653 | 774579 | (not set) | (not set) | 38.926422220254 | -76.89974530058 | 21.5332 | 2025-11-24 07:22:43 | in_vehicle | 100 | 14.779117902134 | |
| 70676 | 251124_783088_16490204_0704 | 783088 | (not set) | (not set) | 38.825936982435 | -77.121426619928 | 6.2509 | 2025-11-24 07:22:43 | in_vehicle | 100 | 10.286373349308 | |
| 70677 | 251124_765082_16423284_0659 | 765082 | (not set) | (not set) | 38.836202459368 | -77.046844295984 | 9.0373 | 2025-11-24 07:22:43 | in_vehicle | 100 | 11.931477822382 | |
| 70678 | 251124_774579_16652636_0653 | 774579 | (not set) | (not set) | 38.926175410129 | -76.899980408391 | 21.5544 | 2025-11-24 07:22:44 | in_vehicle | 100 | 14.850644183572 | |
| 70679 | 251124_789037_16497608_0702 | 789037 | (not set) | (not set) | 38.836579879954 | -76.729977029322 | 14.5352 | 2025-11-24 07:22:44 | in_vehicle | 100 | 11.327974822749 | |
| 70680 | 251124_781336_16450333_0625 | 781336 | (not set) | (not set) | 38.901368076849 | -77.04113346801 | 29.9484 | 2025-11-24 07:22:44 | in_vehicle | 100 | -0.44703925898772 |